Time;durP1;ratioP1;P1;durP2;ratioP2;P2;SDS_P1;SDS_P2;PMS_P1;PMS_P2;Temp;Humidity;BMP_temperature;BMP_pressure;BME280_temperature;BME280_humidity;BME280_pressure;Samples;Min_cycle;Max_cycle;Signal;HPM_P1;HPM_P2
2021/01/30 00:00:22;;;;;;;1.03;0.97;;;-0.20;99.90;;;;;;5027008;28;20202;-77
2021/01/30 00:02:47;;;;;;;1.20;1.07;;;-0.30;99.90;;;;;;5027065;28;20228;-76
2021/01/30 00:05:13;;;;;;;1.53;1.10;;;-0.40;99.90;;;;;;5026257;28;20202;-78
2021/01/30 00:07:38;;;;;;;1.20;1.10;;;-0.30;99.90;;;;;;5027677;28;20179;-78
2021/01/30 00:10:06;;;;;;;1.73;1.33;;;-0.40;99.90;;;;;;5025856;28;20186;-78
2021/01/30 00:12:31;;;;;;;1.23;1.13;;;-0.40;99.90;;;;;;5026859;28;20214;-79
2021/01/30 00:14:57;;;;;;;1.20;1.10;;;-0.50;99.90;;;;;;5027114;28;20234;-77
2021/01/30 00:17:23;;;;;;;1.00;1.00;;;-0.50;99.90;;;;;;5025552;28;20289;-81
2021/01/30 00:19:48;;;;;;;1.70;1.33;;;-0.60;99.90;;;;;;5026539;28;20221;-76
2021/01/30 00:22:17;;;;;;;2.13;1.93;;;-0.60;99.90;;;;;;5027588;28;20175;-80
2021/01/30 00:24:44;;;;;;;4.63;3.40;;;-0.50;99.90;;;;;;5026841;28;20218;-77
2021/01/30 00:27:11;;;;;;;3.97;2.87;;;-0.50;99.90;;;;;;5026420;28;20190;-78
2021/01/30 00:29:38;;;;;;;7.30;5.23;;;-0.40;99.90;;;;;;5027124;28;20265;-78
2021/01/30 00:32:04;;;;;;;2.17;1.80;;;-0.40;99.90;;;;;;5026835;28;20622;-79
2021/01/30 00:34:31;;;;;;;1.73;1.63;;;-0.40;99.90;;;;;;5026509;28;20575;-78
2021/01/30 00:37:05;;;;;;;1.20;1.00;;;-0.40;99.90;;;;;;5025909;28;20183;-76
2021/01/30 00:39:31;;;;;;;1.43;0.90;;;-0.40;99.90;;;;;;5041451;28;20202;-79
2021/01/30 00:41:56;;;;;;;1.37;1.20;;;-0.40;99.90;;;;;;5026598;28;20179;-82
2021/01/30 00:44:22;;;;;;;0.83;0.83;;;-0.50;99.90;;;;;;5026228;28;20277;-82
2021/01/30 00:46:50;;;;;;;1.10;1.00;;;-0.60;99.90;;;;;;5026291;28;20270;-77
2021/01/30 00:49:16;;;;;;;0.87;0.87;;;-0.70;99.90;;;;;;5025325;28;20171;-78
2021/01/30 00:51:42;;;;;;;1.20;1.10;;;-0.70;99.90;;;;;;5026399;28;20197;-76
2021/01/30 00:54:09;;;;;;;1.77;1.40;;;-0.70;99.90;;;;;;5025356;28;20182;-78
2021/01/30 00:56:34;;;;;;;1.43;1.00;;;-0.60;99.90;;;;;;5026157;28;20321;-77
2021/01/30 00:59:00;;;;;;;1.00;0.90;;;-0.70;99.90;;;;;;5026316;28;20261;-79
2021/01/30 01:01:25;;;;;;;2.17;1.80;;;-0.70;99.90;;;;;;5025751;28;20202;-79
2021/01/30 01:03:51;;;;;;;1.80;1.40;;;-0.70;99.90;;;;;;5026870;28;21253;-76
2021/01/30 01:06:16;;;;;;;4.30;3.77;;;-0.60;99.90;;;;;;5025672;28;20264;-75
2021/01/30 01:08:42;;;;;;;2.33;2.10;;;-0.60;99.90;;;;;;5025408;28;20186;-75
2021/01/30 01:11:08;;;;;;;1.57;1.33;;;-0.60;99.90;;;;;;5026662;28;20235;-77
2021/01/30 01:13:34;;;;;;;1.93;1.73;;;-0.60;99.90;;;;;;5026259;28;20190;-81
2021/01/30 01:15:59;;;;;;;1.93;1.83;;;-0.70;99.90;;;;;;5026497;28;20203;-79
2021/01/30 01:18:25;;;;;;;2.33;1.93;;;-0.70;99.90;;;;;;5021458;28;20246;-77
2021/01/30 01:20:51;;;;;;;2.33;1.37;;;-0.80;99.90;;;;;;5022850;28;20210;-77
2021/01/30 01:23:17;;;;;;;1.40;1.30;;;-0.80;99.90;;;;;;5026767;28;20183;-78
2021/01/30 01:25:42;;;;;;;2.33;1.97;;;-0.90;99.90;;;;;;5024571;28;20206;-79
2021/01/30 01:28:09;;;;;;;1.97;1.30;;;-0.90;99.90;;;;;;5024948;28;20193;-79
2021/01/30 01:30:34;;;;;;;0.93;0.90;;;-1.00;99.90;;;;;;5023045;28;20642;-77
2021/01/30 01:33:00;;;;;;;0.83;0.83;;;-1.00;99.90;;;;;;5026152;28;20274;-79
2021/01/30 01:35:31;;;;;;;2.00;1.63;;;-1.00;99.90;;;;;;5025638;28;20211;-79
2021/01/30 01:37:58;;;;;;;1.27;1.00;;;-0.90;99.90;;;;;;5024516;28;20187;-78
2021/01/30 01:40:37;;;;;;;1.43;1.33;;;-1.00;99.90;;;;;;5025491;28;20214;-78
2021/01/30 01:43:12;;;;;;;3.03;1.43;;;-0.90;99.90;;;;;;5026027;28;20179;-77
2021/01/30 01:45:39;;;;;;;2.20;2.00;;;-1.00;99.90;;;;;;5025676;28;20266;-79
2021/01/30 01:48:26;;;;;;;1.23;0.97;;;-1.00;99.90;;;;;;5024618;28;20182;-77
2021/01/30 01:50:52;;;;;;;0.80;0.80;;;-0.90;99.90;;;;;;5025744;28;20186;-78
2021/01/30 01:53:27;;;;;;;1.43;1.33;;;-1.00;99.90;;;;;;5026162;28;20253;-81
2021/01/30 01:56:15;;;;;;;1.57;1.47;;;-1.00;99.90;;;;;;5025600;28;20268;-79
2021/01/30 01:58:45;;;;;;;1.33;1.17;;;-1.00;99.90;;;;;;5025412;28;20249;-76
2021/01/30 02:01:11;;;;;;;2.23;1.50;;;-1.00;99.90;;;;;;5024711;28;20305;-78
2021/01/30 02:03:41;;;;;;;1.53;1.07;;;-1.10;99.90;;;;;;5025022;28;20186;-78
2021/01/30 02:06:07;;;;;;;3.00;1.53;;;-1.10;99.90;;;;;;5024322;28;20241;-77
2021/01/30 02:08:34;;;;;;;1.60;1.00;;;-1.10;99.90;;;;;;5023909;28;20187;-77
2021/01/30 02:10:59;;;;;;;1.80;1.23;;;-1.10;99.90;;;;;;5024512;28;20237;-80
2021/01/30 02:13:41;;;;;;;1.50;1.40;;;-1.20;99.90;;;;;;5023349;28;20682;-78
2021/01/30 02:16:34;;;;;;;1.33;1.13;;;-1.10;99.90;;;;;;5024853;28;20207;-81
2021/01/30 02:19:19;;;;;;;1.00;1.00;;;-1.10;99.90;;;;;;5025690;28;20554;-79
2021/01/30 02:22:30;;;;;;;0.70;0.70;;;-1.10;99.90;;;;;;5024479;28;20732;-78
2021/01/30 02:25:14;;;;;;;1.37;1.27;;;-1.10;99.90;;;;;;5022463;28;20699;-79
2021/01/30 02:28:18;;;;;;;1.20;1.10;;;-1.10;99.90;;;;;;5023666;28;20554;-79
2021/01/30 02:30:55;;;;;;;3.07;2.10;;;-1.10;99.90;;;;;;5023152;28;20187;-79
2021/01/30 02:33:57;;;;;;;0.93;0.83;;;-1.20;99.90;;;;;;5024871;28;20175;-79
2021/01/30 02:36:37;;;;;;;1.77;1.67;;;-1.10;99.90;;;;;;5038758;28;20178;-77
2021/01/30 02:39:11;;;;;;;0.73;0.73;;;-1.10;99.90;;;;;;5023290;28;20182;-82
2021/01/30 02:41:41;;;;;;;1.33;1.23;;;-1.10;99.90;;;;;;5024266;28;20233;-82
2021/01/30 02:44:11;;;;;;;0.73;0.70;;;-1.20;99.90;;;;;;5026483;28;20183;-81
2021/01/30 02:46:48;;;;;;;1.53;1.43;;;-1.20;99.90;;;;;;5029383;28;20229;-80
2021/01/30 02:49:19;;;;;;;1.93;1.60;;;-1.10;99.90;;;;;;5027592;28;20278;-76
2021/01/30 02:51:50;;;;;;;2.03;1.73;;;-1.10;99.90;;;;;;5029402;28;20187;-78
2021/01/30 02:54:15;;;;;;;1.50;1.40;;;-1.10;99.90;;;;;;5029362;28;20190;-79
2021/01/30 02:56:41;;;;;;;0.87;0.87;;;-1.10;99.90;;;;;;5028994;28;20202;-79
2021/01/30 02:59:21;;;;;;;1.43;1.23;;;-1.00;99.90;;;;;;5028164;28;20274;-80
2021/01/30 03:01:46;;;;;;;2.00;1.40;;;-1.10;99.90;;;;;;5027375;28;20190;-79
2021/01/30 03:04:25;;;;;;;1.07;0.97;;;-1.20;99.90;;;;;;5028379;28;20270;-78
2021/01/30 03:07:01;;;;;;;1.37;1.07;;;-1.20;99.90;;;;;;5043235;28;20194;-77
2021/01/30 03:09:34;;;;;;;2.23;1.33;;;-1.20;99.90;;;;;;5027309;28;20182;-76
2021/01/30 03:12:33;;;;;;;0.70;0.70;;;-1.30;99.90;;;;;;5025936;28;20179;-77
2021/01/30 03:15:07;;;;;;;5.17;1.60;;;-1.30;99.90;;;;;;5018567;28;20211;-76
2021/01/30 03:17:33;;;;;;;0.97;0.90;;;-1.20;99.90;;;;;;5040863;28;20183;-78
2021/01/30 03:20:00;;;;;;;1.07;1.07;;;-1.20;99.90;;;;;;5025475;28;21170;-77
2021/01/30 03:22:30;;;;;;;2.30;1.33;;;-1.20;99.90;;;;;;5027450;28;20183;-78
2021/01/30 03:24:57;;;;;;;1.40;1.13;;;-1.30;99.90;;;;;;5027271;28;20226;-78
2021/01/30 03:27:28;;;;;;;1.50;1.30;;;-1.20;99.90;;;;;;5026918;28;20258;-76
2021/01/30 03:29:56;;;;;;;1.27;1.17;;;-1.20;99.90;;;;;;5026965;28;20189;-75
2021/01/30 03:32:21;;;;;;;1.23;1.10;;;-1.20;99.90;;;;;;5041755;28;20210;-76
2021/01/30 03:34:49;;;;;;;1.80;1.10;;;-1.20;99.90;;;;;;5026751;28;20297;-77
2021/01/30 03:37:15;;;;;;;1.20;1.13;;;-1.30;99.90;;;;;;5026078;28;20606;-76
2021/01/30 03:39:41;;;;;;;2.67;1.27;;;-1.20;99.90;;;;;;5025203;28;20237;-77
2021/01/30 03:42:06;;;;;;;2.13;1.40;;;-1.20;99.90;;;;;;5025773;28;20645;-77
2021/01/30 03:44:32;;;;;;;1.40;1.30;;;-1.20;99.90;;;;;;5026612;28;20393;-76
2021/01/30 03:46:58;;;;;;;0.93;0.87;;;-1.20;99.90;;;;;;5026836;28;20179;-77
2021/01/30 03:49:24;;;;;;;2.33;1.60;;;-1.20;99.90;;;;;;5024375;28;20670;-77
2021/01/30 03:51:49;;;;;;;1.70;1.03;;;-1.30;99.90;;;;;;5026537;28;20193;-77
2021/01/30 03:54:15;;;;;;;2.37;1.40;;;-1.30;99.90;;;;;;5025784;28;20197;-77
2021/01/30 03:56:43;;;;;;;1.33;1.23;;;-1.40;99.90;;;;;;5025467;28;20179;-77
2021/01/30 03:59:08;;;;;;;1.30;0.80;;;-1.40;99.90;;;;;;5026722;28;20617;-76
2021/01/30 04:01:34;;;;;;;2.60;1.57;;;-1.40;99.90;;;;;;5024840;28;20301;-76
2021/01/30 04:04:00;;;;;;;1.37;1.17;;;-1.40;99.90;;;;;;5025600;28;20179;-76
2021/01/30 04:06:26;;;;;;;1.47;1.30;;;-1.40;99.90;;;;;;5026491;28;20201;-76
2021/01/30 04:08:51;;;;;;;1.20;1.03;;;-1.40;99.90;;;;;;5026877;28;20574;-76
2021/01/30 04:11:23;;;;;;;2.67;1.57;;;-1.50;99.90;;;;;;5025128;28;20554;-75
2021/01/30 04:13:49;;;;;;;1.70;0.93;;;-1.50;99.90;;;;;;5025659;28;20213;-79
2021/01/30 04:16:14;;;;;;;1.00;0.90;;;-1.50;99.90;;;;;;5026911;28;20841;-79
2021/01/30 04:18:40;;;;;;;1.87;1.60;;;-1.50;99.90;;;;;;5026962;28;20257;-77
2021/01/30 04:21:05;;;;;;;1.10;1.07;;;-1.50;99.90;;;;;;5025876;28;20281;-78
2021/01/30 04:23:31;;;;;;;2.03;1.83;;;-1.50;99.90;;;;;;5027460;28;20605;-77
2021/01/30 04:25:56;;;;;;;3.30;1.67;;;-1.60;99.90;;;;;;5026789;28;20672;-77
2021/01/30 04:28:22;;;;;;;2.53;2.30;;;-1.50;99.90;;;;;;5025772;28;20182;-76
2021/01/30 04:30:47;;;;;;;2.70;2.20;;;-1.50;99.90;;;;;;5025810;28;20277;-77
2021/01/30 04:33:13;;;;;;;2.40;2.20;;;-1.40;99.90;;;;;;5026299;28;20569;-77
2021/01/30 04:35:39;;;;;;;2.93;2.53;;;-1.50;99.90;;;;;;5025559;28;20673;-77
2021/01/30 04:38:06;;;;;;;2.50;1.57;;;-1.50;99.90;;;;;;5025962;28;20190;-77
2021/01/30 04:40:34;;;;;;;1.40;1.30;;;-1.50;99.90;;;;;;5025718;28;20202;-77
2021/01/30 04:43:13;;;;;;;1.63;1.33;;;-1.60;99.90;;;;;;5025797;28;20183;-76
2021/01/30 04:45:44;;;;;;;1.63;1.20;;;-1.60;99.90;;;;;;5025607;28;20801;-77
2021/01/30 04:48:45;;;;;;;2.03;1.83;;;-1.70;99.90;;;;;;5025916;28;20198;-77
2021/01/30 04:51:21;;;;;;;1.13;1.07;;;-1.70;99.90;;;;;;5024176;28;20320;-77
2021/01/30 04:54:28;;;;;;;1.10;1.00;;;-1.70;99.90;;;;;;5025596;28;20179;-77
2021/01/30 04:57:07;;;;;;;2.27;1.40;;;-1.60;99.90;;;;;;4992230;28;20221;-77
2021/01/30 04:59:33;;;;;;;1.43;1.23;;;-1.70;99.90;;;;;;5024275;28;20182;-76
2021/01/30 05:02:25;;;;;;;1.57;1.40;;;-1.70;99.90;;;;;;5025804;28;20562;-78
2021/01/30 05:04:54;;;;;;;1.17;1.07;;;-1.60;99.90;;;;;;5027830;28;20621;-77
2021/01/30 05:07:41;;;;;;;1.57;1.47;;;-1.70;99.90;;;;;;5025446;28;20270;-77
2021/01/30 05:10:23;;;;;;;2.37;1.80;;;-1.70;99.90;;;;;;5025540;28;20218;-76
2021/01/30 05:12:58;;;;;;;1.40;1.30;;;-1.70;99.90;;;;;;5025310;28;20190;-77
2021/01/30 05:15:26;;;;;;;1.93;1.63;;;-1.60;99.90;;;;;;5025494;28;20313;-78
2021/01/30 05:17:51;;;;;;;2.27;1.57;;;-1.50;99.90;;;;;;5025429;28;20183;-77
2021/01/30 05:20:18;;;;;;;1.37;1.27;;;-1.50;99.90;;;;;;5024839;28;20202;-77
2021/01/30 05:22:46;;;;;;;2.83;1.90;;;-1.50;99.90;;;;;;5025676;28;20677;-77
2021/01/30 05:25:16;;;;;;;1.93;1.67;;;-1.50;99.90;;;;;;5026362;28;20289;-77
2021/01/30 05:27:50;;;;;;;2.90;2.63;;;-1.40;99.90;;;;;;5025402;28;20171;-77
2021/01/30 05:30:35;;;;;;;1.60;1.23;;;-1.50;99.90;;;;;;5024878;28;20186;-77
2021/01/30 05:33:12;;;;;;;6.33;2.73;;;-1.40;99.90;;;;;;5026120;28;20669;-78
2021/01/30 05:36:08;;;;;;;2.30;1.43;;;-1.40;99.90;;;;;;5025231;28;20207;-78
2021/01/30 05:39:01;;;;;;;1.67;1.57;;;-1.40;99.90;;;;;;5018384;28;20264;-78
2021/01/30 05:41:55;;;;;;;1.63;1.53;;;-1.30;99.90;;;;;;5023721;28;20210;-76
2021/01/30 05:44:47;;;;;;;4.10;2.03;;;-1.20;99.90;;;;;;5024757;28;20190;-76
2021/01/30 05:47:16;;;;;;;2.07;1.90;;;-1.20;99.90;;;;;;5025632;28;20179;-76
2021/01/30 05:50:00;;;;;;;2.13;1.93;;;-1.20;99.90;;;;;;5024877;28;20183;-76
2021/01/30 05:52:31;;;;;;;2.70;2.20;;;-1.20;99.90;;;;;;5025143;28;20167;-76
2021/01/30 05:54:58;;;;;;;2.00;1.80;;;-1.20;99.90;;;;;;5040489;28;20202;-76
2021/01/30 05:57:24;;;;;;;1.63;1.53;;;-1.10;99.90;;;;;;5025467;28;20179;-76
2021/01/30 05:59:55;;;;;;;1.90;1.63;;;-1.10;99.90;;;;;;5024521;28;20902;-77
2021/01/30 06:02:23;;;;;;;1.97;1.77;;;-1.10;99.90;;;;;;5025235;28;20198;-76
2021/01/30 06:04:49;;;;;;;2.00;1.60;;;-1.10;99.90;;;;;;5025177;28;20198;-76
2021/01/30 06:07:37;;;;;;;2.47;1.87;;;-1.00;99.90;;;;;;5025001;28;20663;-77
2021/01/30 06:10:25;;;;;;;2.30;2.10;;;-1.00;99.90;;;;;;5025604;28;20842;-76
2021/01/30 06:13:19;;;;;;;1.13;0.97;;;-0.90;99.90;;;;;;5024950;28;21160;-77
2021/01/30 06:15:48;;;;;;;1.73;1.50;;;-0.90;99.90;;;;;;5024690;28;20210;-77
2021/01/30 06:18:31;;;;;;;2.37;1.53;;;-0.90;99.90;;;;;;5029137;28;20183;-77
2021/01/30 06:21:16;;;;;;;3.23;2.60;;;-1.00;99.90;;;;;;5028491;28;20210;-77
2021/01/30 06:24:05;;;;;;;1.93;1.50;;;-1.10;99.90;;;;;;5028847;28;20222;-77
2021/01/30 06:26:35;;;;;;;1.20;1.10;;;-1.00;99.90;;;;;;5029102;28;20190;-77
2021/01/30 06:29:03;;;;;;;3.77;2.13;;;-1.10;99.90;;;;;;5028918;28;20308;-78
2021/01/30 06:31:39;;;;;;;2.33;1.73;;;-1.00;99.90;;;;;;5028956;28;20183;-77
2021/01/30 06:34:30;;;;;;;2.90;2.70;;;-0.90;99.90;;;;;;5028718;28;20179;-76
2021/01/30 06:36:57;;;;;;;2.83;2.03;;;-0.90;99.90;;;;;;5029013;28;20179;-76
2021/01/30 06:39:33;;;;;;;3.10;2.27;;;-1.00;99.90;;;;;;5028300;28;20179;-76
2021/01/30 06:42:07;;;;;;;2.83;2.17;;;-0.90;99.90;;;;;;5027163;28;20186;-76
2021/01/30 06:44:34;;;;;;;2.43;1.90;;;-0.90;99.90;;;;;;5028264;28;20435;-77
2021/01/30 06:47:18;;;;;;;4.27;2.87;;;-0.90;99.90;;;;;;5027432;28;20237;-78
2021/01/30 06:49:54;;;;;;;3.73;2.40;;;-0.90;99.90;;;;;;5028631;28;20182;-76
2021/01/30 06:52:19;;;;;;;3.10;2.13;;;-0.90;99.90;;;;;;5028540;28;20174;-77
2021/01/30 06:54:45;;;;;;;2.73;2.07;;;-0.90;99.90;;;;;;5028658;28;21309;-78
2021/01/30 06:57:25;;;;;;;4.10;2.57;;;-0.80;99.90;;;;;;5028301;28;20171;-77
2021/01/30 06:59:58;;;;;;;3.70;2.50;;;-0.90;99.90;;;;;;5026919;28;20194;-77
2021/01/30 07:02:41;;;;;;;2.73;1.80;;;-0.80;99.90;;;;;;5028211;28;20199;-77
2021/01/30 07:05:26;;;;;;;4.00;2.90;;;-0.80;99.90;;;;;;5028106;28;20195;-77
2021/01/30 07:08:11;;;;;;;2.33;2.10;;;-0.80;99.90;;;;;;5044247;28;20171;-78
2021/01/30 07:10:39;;;;;;;2.97;2.63;;;-0.70;99.90;;;;;;5028512;28;20207;-79
2021/01/30 07:13:25;;;;;;;3.07;2.20;;;-0.70;99.90;;;;;;5026983;28;20194;-78
2021/01/30 07:16:07;;;;;;;2.33;2.10;;;-0.70;99.90;;;;;;5027835;28;20207;-75
2021/01/30 07:18:44;;;;;;;2.23;2.03;;;-0.70;99.90;;;;;;5027734;28;20171;-75
2021/01/30 07:21:24;;;;;;;5.20;2.70;;;-0.60;99.90;;;;;;5028101;28;20202;-76
2021/01/30 07:24:15;;;;;;;1.43;1.33;;;-0.60;99.90;;;;;;5028035;28;20733;-77
2021/01/30 07:27:02;;;;;;;1.40;1.17;;;-0.60;99.90;;;;;;5028114;28;20258;-77
2021/01/30 07:29:43;;;;;;;3.23;2.30;;;-0.60;99.90;;;;;;5027684;28;20675;-77
2021/01/30 07:32:31;;;;;;;2.67;1.97;;;-0.60;99.90;;;;;;5028064;28;20179;-77
2021/01/30 07:35:35;;;;;;;5.33;2.50;;;-0.50;99.90;;;;;;5027310;28;20228;-77
2021/01/30 07:38:20;;;;;;;3.03;2.40;;;-0.50;99.90;;;;;;5024124;28;20580;-78
2021/01/30 07:40:53;;;;;;;2.33;2.13;;;-0.40;99.90;;;;;;5022692;28;20216;-77
2021/01/30 07:43:26;;;;;;;1.97;1.87;;;-0.40;99.90;;;;;;5024857;28;20540;-77
2021/01/30 07:46:04;;;;;;;3.17;2.37;;;-0.30;99.90;;;;;;5026847;28;20584;-76
2021/01/30 07:48:51;;;;;;;4.53;2.47;;;-0.30;99.90;;;;;;5026502;28;20218;-76
2021/01/30 07:51:24;;;;;;;4.97;3.33;;;-0.30;99.90;;;;;;5027012;28;20179;-79
2021/01/30 07:53:50;;;;;;;3.00;2.70;;;-0.20;99.90;;;;;;5027305;28;20649;-76
2021/01/30 07:56:18;;;;;;;2.17;1.97;;;-0.20;99.90;;;;;;5026867;28;20213;-78
2021/01/30 07:58:57;;;;;;;3.63;3.00;;;-0.10;99.90;;;;;;5026110;28;20228;-76
2021/01/30 08:01:40;;;;;;;2.33;1.33;;;-0.10;99.90;;;;;;5026978;28;20296;-78
2021/01/30 08:04:09;;;;;;;3.03;2.37;;;-0.10;99.90;;;;;;5026237;28;20175;-78
2021/01/30 08:06:40;;;;;;;2.33;2.00;;;0.00;99.90;;;;;;5026482;28;20183;-77
2021/01/30 08:09:12;;;;;;;2.10;1.93;;;0.10;99.90;;;;;;5026673;28;20186;-76
2021/01/30 08:11:46;;;;;;;3.07;2.70;;;0.20;99.90;;;;;;5025669;28;20182;-75
2021/01/30 08:14:28;;;;;;;3.10;2.53;;;0.30;99.90;;;;;;5025548;28;20264;-75
2021/01/30 08:17:29;;;;;;;2.97;1.67;;;0.40;99.90;;;;;;5027204;28;20186;-78
2021/01/30 08:20:01;;;;;;;2.67;2.40;;;0.50;99.90;;;;;;5022287;28;20298;-78
2021/01/30 08:22:44;;;;;;;3.87;2.90;;;0.50;99.90;;;;;;5042227;28;20281;-76
2021/01/30 08:25:30;;;;;;;2.70;2.50;;;0.70;99.90;;;;;;5024670;28;20282;-77
2021/01/30 08:28:09;;;;;;;3.10;2.73;;;0.80;99.90;;;;;;5026450;28;20171;-78
2021/01/30 08:30:37;;;;;;;4.03;2.97;;;0.90;99.90;;;;;;5025344;28;20178;-77
2021/01/30 08:33:05;;;;;;;2.93;2.50;;;0.80;99.90;;;;;;5025620;28;20206;-77
2021/01/30 08:35:31;;;;;;;3.90;2.20;;;0.80;99.90;;;;;;5026235;28;20292;-78
2021/01/30 08:38:10;;;;;;;3.37;2.43;;;0.80;99.90;;;;;;5025528;28;20207;-78
2021/01/30 08:40:46;;;;;;;3.50;2.43;;;0.90;99.90;;;;;;5025271;28;20198;-78
2021/01/30 08:43:34;;;;;;;2.73;1.93;;;0.90;99.90;;;;;;5026587;28;20258;-77
2021/01/30 08:46:23;;;;;;;3.03;1.77;;;0.90;99.90;;;;;;5024569;28;20194;-77
2021/01/30 08:49:16;;;;;;;2.47;1.53;;;0.80;99.90;;;;;;5026711;28;20298;-78
2021/01/30 08:51:43;;;;;;;3.57;1.97;;;0.80;99.90;;;;;;5025769;28;20206;-76
2021/01/30 08:54:33;;;;;;;3.70;2.50;;;0.90;99.90;;;;;;5026629;28;20333;-78
2021/01/30 08:57:00;;;;;;;3.50;2.40;;;1.10;99.90;;;;;;5029653;28;20584;-78
2021/01/30 08:59:46;;;;;;;4.83;3.53;;;1.20;99.90;;;;;;5024649;28;20240;-78
2021/01/30 09:02:27;;;;;;;3.50;3.00;;;1.40;99.90;;;;;;5025659;28;20304;-77
2021/01/30 09:05:01;;;;;;;3.17;2.33;;;1.30;99.90;;;;;;5027019;28;20249;-77
2021/01/30 09:07:48;;;;;;;4.17;1.97;;;1.30;99.90;;;;;;5026675;28;20178;-78
2021/01/30 09:10:33;;;;;;;5.03;3.53;;;1.20;99.90;;;;;;5044010;28;21144;-79
2021/01/30 09:13:03;;;;;;;3.60;2.80;;;1.20;99.90;;;;;;5044375;28;20182;-79
2021/01/30 09:15:40;;;;;;;3.33;2.83;;;1.20;99.90;;;;;;5028189;28;20578;-78
2021/01/30 09:18:21;;;;;;;2.60;2.33;;;1.10;99.90;;;;;;5031266;28;20676;-77
2021/01/30 09:21:14;;;;;;;3.53;2.10;;;1.10;99.90;;;;;;5027115;28;20206;-77
2021/01/30 09:23:45;;;;;;;3.03;2.73;;;1.10;99.90;;;;;;5025740;28;20527;-78
2021/01/30 09:26:32;;;;;;;2.37;2.13;;;1.20;99.90;;;;;;5024507;28;20202;-79
2021/01/30 09:29:03;;;;;;;3.77;2.30;;;1.30;99.90;;;;;;5025456;28;21048;-77
2021/01/30 09:31:30;;;;;;;1.57;1.43;;;1.40;99.90;;;;;;5024863;28;20241;-77
2021/01/30 09:34:01;;;;;;;2.60;2.20;;;1.30;99.90;;;;;;5024462;28;20175;-77
2021/01/30 09:36:33;;;;;;;4.23;2.70;;;1.20;99.90;;;;;;5025218;28;20690;-78
2021/01/30 09:38:59;;;;;;;4.00;3.07;;;1.30;99.90;;;;;;5024742;28;20197;-80
2021/01/30 09:41:25;;;;;;;2.43;1.97;;;1.40;99.90;;;;;;5025046;28;20317;-79
2021/01/30 09:44:22;;;;;;;2.90;2.47;;;1.30;99.90;;;;;;5023371;28;20649;-78
2021/01/30 09:46:55;;;;;;;3.33;2.20;;;1.40;99.90;;;;;;5024254;28;20186;-77
2021/01/30 09:49:32;;;;;;;2.97;2.13;;;1.40;99.90;;;;;;5023031;28;20190;-78
2021/01/30 09:52:00;;;;;;;3.53;2.40;;;1.40;99.90;;;;;;5025921;28;20289;-77
2021/01/30 09:54:28;;;;;;;4.57;3.63;;;1.40;99.90;;;;;;5028826;28;20707;-79
2021/01/30 09:57:03;;;;;;;6.17;4.37;;;1.50;99.90;;;;;;5029255;28;20237;-78
2021/01/30 09:59:30;;;;;;;4.73;2.83;;;1.70;99.90;;;;;;5028888;28;20182;-77
2021/01/30 10:02:21;;;;;;;4.17;3.27;;;1.80;99.90;;;;;;5028673;28;20556;-77
2021/01/30 10:04:47;;;;;;;2.10;1.90;;;1.90;99.90;;;;;;5028104;28;20234;-78
2021/01/30 10:07:15;;;;;;;2.67;2.17;;;1.80;99.90;;;;;;5027234;28;20186;-79
2021/01/30 10:09:44;;;;;;;3.13;2.77;;;1.60;99.90;;;;;;5028887;28;20179;-78
2021/01/30 10:12:12;;;;;;;6.83;4.93;;;1.40;99.90;;;;;;5027038;28;20244;-79
2021/01/30 10:14:42;;;;;;;4.43;3.53;;;1.20;99.90;;;;;;5027800;28;20206;-78
2021/01/30 10:17:14;;;;;;;5.37;3.40;;;1.10;99.90;;;;;;5027701;28;20175;-77
2021/01/30 10:19:40;;;;;;;4.23;2.83;;;1.30;99.90;;;;;;5026345;28;20694;-79
2021/01/30 10:22:23;;;;;;;39.50;22.57;;;1.40;99.90;;;;;;5028670;28;20175;-78
2021/01/30 10:24:50;;;;;;;8.10;5.93;;;1.50;99.90;;;;;;5027961;28;20233;-79
2021/01/30 10:27:22;;;;;;;3.83;3.33;;;1.70;99.90;;;;;;5027824;28;20947;-78
2021/01/30 10:29:51;;;;;;;2.50;1.67;;;1.60;99.90;;;;;;5027490;28;20181;-77
2021/01/30 10:32:39;;;;;;;3.97;2.57;;;1.80;99.90;;;;;;5042728;28;20256;-79
2021/01/30 10:35:11;;;;;;;4.60;3.30;;;2.00;99.90;;;;;;5028101;28;20294;-78
2021/01/30 10:37:49;;;;;;;2.43;2.07;;;2.20;99.90;;;;;;5027562;28;20171;-77
2021/01/30 10:40:27;;;;;;;2.77;2.03;;;2.60;99.90;;;;;;5027675;28;20209;-78
2021/01/30 10:42:59;;;;;;;3.33;2.33;;;2.70;99.90;;;;;;5028183;28;20171;-77
2021/01/30 10:45:29;;;;;;;2.53;1.73;;;2.70;99.90;;;;;;5027639;28;20203;-77
2021/01/30 10:48:04;;;;;;;1.93;1.60;;;2.80;99.90;;;;;;5028351;28;20176;-77
2021/01/30 10:50:39;;;;;;;1.90;1.50;;;2.60;99.90;;;;;;5024854;28;20189;-78
2021/01/30 10:53:22;;;;;;;3.27;2.30;;;2.50;99.90;;;;;;5028092;28;20182;-78
2021/01/30 10:55:49;;;;;;;2.60;2.00;;;2.50;99.90;;;;;;5026895;28;20268;-77
2021/01/30 10:58:36;;;;;;;2.37;1.87;;;2.60;99.90;;;;;;5027450;28;20194;-78
2021/01/30 11:01:06;;;;;;;2.67;1.30;;;2.60;99.90;;;;;;5026841;28;20194;-77
2021/01/30 11:03:52;;;;;;;2.80;2.27;;;2.70;99.90;;;;;;5026888;28;20289;-78
2021/01/30 11:06:46;;;;;;;2.20;1.30;;;2.60;99.90;;;;;;5025743;28;20203;-78
2021/01/30 11:09:22;;;;;;;2.00;1.50;;;2.50;99.90;;;;;;5027006;28;20269;-77
2021/01/30 11:12:15;;;;;;;1.97;1.57;;;2.70;99.90;;;;;;5027183;28;20189;-77
2021/01/30 11:14:41;;;;;;;1.90;1.70;;;2.90;99.90;;;;;;5027397;28;20206;-77
2021/01/30 11:17:32;;;;;;;1.80;1.60;;;2.90;99.90;;;;;;5026785;28;20672;-79
2021/01/30 11:19:58;;;;;;;1.73;1.47;;;2.80;99.90;;;;;;5026993;28;20198;-79
2021/01/30 11:22:26;;;;;;;2.60;1.50;;;2.80;99.90;;;;;;5027649;28;20187;-80
2021/01/30 11:25:05;;;;;;;2.10;1.60;;;2.90;99.90;;;;;;5027419;28;20194;-77
2021/01/30 11:27:34;;;;;;;2.83;1.90;;;3.00;99.90;;;;;;5043730;28;20218;-79
2021/01/30 11:30:15;;;;;;;2.80;2.53;;;3.20;99.90;;;;;;5028937;28;20312;-80
2021/01/30 11:32:55;;;;;;;2.90;1.60;;;3.10;99.90;;;;;;5026068;28;20187;-78
2021/01/30 11:35:34;;;;;;;2.87;2.13;;;3.10;99.90;;;;;;5025372;28;20194;-79
2021/01/30 11:38:12;;;;;;;3.27;1.50;;;2.90;99.90;;;;;;5026955;28;20187;-79
2021/01/30 11:40:37;;;;;;;2.43;1.90;;;2.60;99.90;;;;;;5024442;28;20198;-79
2021/01/30 11:43:03;;;;;;;1.97;1.77;;;2.50;99.90;;;;;;5026462;28;20262;-79
2021/01/30 11:45:29;;;;;;;2.20;1.83;;;2.60;99.90;;;;;;5026330;28;20205;-79
2021/01/30 11:47:54;;;;;;;2.37;1.40;;;2.70;99.90;;;;;;5024363;28;20179;-79
2021/01/30 11:50:21;;;;;;;2.43;1.43;;;3.00;99.90;;;;;;5022781;28;20187;-78
2021/01/30 11:52:47;;;;;;;2.03;1.63;;;3.00;99.90;;;;;;5026623;28;20191;-79
2021/01/30 11:55:13;;;;;;;2.70;2.00;;;3.00;99.90;;;;;;5024612;28;20348;-77
2021/01/30 11:57:39;;;;;;;2.23;1.63;;;3.00;99.90;;;;;;5026051;28;20182;-79
2021/01/30 12:00:07;;;;;;;2.63;1.90;;;2.90;99.90;;;;;;5024502;28;20195;-79
2021/01/30 12:02:38;;;;;;;2.30;2.00;;;2.70;99.90;;;;;;5025988;28;20190;-75
2021/01/30 12:05:07;;;;;;;2.00;1.27;;;2.60;99.90;;;;;;5026766;28;20199;-79
2021/01/30 12:07:33;;;;;;;1.80;1.47;;;2.50;99.90;;;;;;5025737;28;20201;-78
2021/01/30 12:09:59;;;;;;;2.97;2.20;;;2.40;99.90;;;;;;5025781;28;20704;-78
2021/01/30 12:12:25;;;;;;;2.30;1.50;;;2.30;99.90;;;;;;5024763;28;20671;-75
2021/01/30 12:14:51;;;;;;;2.23;1.97;;;2.30;99.90;;;;;;5022768;28;20203;-77
2021/01/30 12:17:38;;;;;;;3.47;2.13;;;2.40;99.90;;;;;;5023163;28;20293;-77
2021/01/30 12:20:05;;;;;;;2.07;1.73;;;2.70;99.90;;;;;;5024950;28;20230;-77
2021/01/30 12:22:31;;;;;;;1.30;0.97;;;2.90;99.90;;;;;;5024775;28;20185;-77
2021/01/30 12:24:56;;;;;;;1.13;0.70;;;2.90;99.90;;;;;;5024739;28;20203;-78
2021/01/30 12:27:24;;;;;;;0.63;0.60;;;2.80;99.90;;;;;;5024339;28;20175;-79
2021/01/30 12:29:49;;;;;;;0.67;0.60;;;2.60;99.90;;;;;;5022777;28;20183;-78
2021/01/30 12:32:15;;;;;;;2.60;1.60;;;2.70;99.90;;;;;;5025002;28;20258;-76
2021/01/30 12:34:40;;;;;;;16.00;7.60;;;2.80;99.90;;;;;;5022869;28;20547;-78
2021/01/30 12:37:07;;;;;;;5.13;2.47;;;2.80;99.90;;;;;;5024299;28;20175;-77
2021/01/30 12:39:33;;;;;;;2.20;2.00;;;2.80;99.90;;;;;;5023862;28;20185;-77
2021/01/30 12:41:58;;;;;;;2.67;2.33;;;2.80;99.90;;;;;;5024638;28;20210;-77
2021/01/30 12:44:24;;;;;;;2.00;1.90;;;2.90;99.90;;;;;;5023912;28;20199;-78
2021/01/30 12:46:51;;;;;;;1.47;1.20;;;3.10;99.90;;;;;;5024215;28;20175;-79
2021/01/30 12:49:17;;;;;;;2.90;2.27;;;3.10;99.90;;;;;;5022888;28;20185;-79
2021/01/30 12:51:43;;;;;;;2.60;2.17;;;3.40;99.90;;;;;;5020759;28;20183;-76
2021/01/30 12:54:09;;;;;;;2.57;1.97;;;3.60;99.90;;;;;;5024777;28;20232;-78
2021/01/30 12:56:36;;;;;;;2.73;2.23;;;3.50;99.90;;;;;;5021706;28;20182;-79
2021/01/30 12:59:05;;;;;;;6.60;4.37;;;3.50;99.90;;;;;;5024217;28;20252;-78
2021/01/30 13:01:31;;;;;;;2.17;1.60;;;3.40;99.90;;;;;;5024500;28;20214;-78
2021/01/30 13:03:57;;;;;;;1.87;1.37;;;3.20;99.90;;;;;;5023363;28;20298;-78
2021/01/30 13:06:23;;;;;;;1.43;1.30;;;3.10;99.90;;;;;;5023110;28;20281;-78
2021/01/30 13:08:49;;;;;;;6.67;4.23;;;3.20;99.90;;;;;;5023165;28;20175;-77
2021/01/30 13:11:16;;;;;;;7.13;4.27;;;3.10;99.90;;;;;;5023596;28;20191;-77
2021/01/30 13:13:42;;;;;;;1.33;1.00;;;2.90;99.90;;;;;;5024671;28;20183;-77
2021/01/30 13:16:08;;;;;;;3.47;1.77;;;2.70;99.90;;;;;;5023909;28;20203;-77
2021/01/30 13:18:34;;;;;;;22.77;8.63;;;2.50;99.90;;;;;;5024381;28;20201;-77
2021/01/30 13:21:03;;;;;;;3.03;2.67;;;2.30;99.90;;;;;;5023224;28;20211;-78